Time;durP1;ratioP1;P1;durP2;ratioP2;P2;SDS_P1;SDS_P2;PMS_P1;PMS_P2;Temp;Humidity;BMP_temperature;BMP_pressure;BME280_temperature;BME280_humidity;BME280_pressure;Samples;Min_cycle;Max_cycle;Signal;HPM_P1;HPM_P2
2023/03/28 00:01:03;;;;;;;4.00;0.60;;;1.60;99.90;;;;;;4970818;28;20049;-74
2023/03/28 00:03:34;;;;;;;3.20;0.43;;;1.60;99.90;;;;;;4979503;28;20065;-74
2023/03/28 00:06:01;;;;;;;4.20;0.40;;;1.60;99.90;;;;;;4989033;28;20044;-74
2023/03/28 00:08:28;;;;;;;5.67;0.60;;;1.50;99.90;;;;;;4972116;28;20481;-74
2023/03/28 00:11:06;;;;;;;4.83;0.70;;;1.50;99.90;;;;;;4977676;28;20050;-74
2023/03/28 00:13:32;;;;;;;4.27;0.37;;;1.50;99.90;;;;;;4970608;28;20057;-74
2023/03/28 00:16:11;;;;;;;4.90;0.50;;;1.50;99.90;;;;;;4972577;28;20831;-74
2023/03/28 00:18:37;;;;;;;4.80;0.80;;;1.50;99.90;;;;;;4971639;28;20409;-74
2023/03/28 00:21:06;;;;;;;9.80;0.90;;;1.40;99.90;;;;;;4964594;28;20043;-74
2023/03/28 00:23:34;;;;;;;4.87;0.53;;;1.40;99.90;;;;;;4980614;28;20045;-74
2023/03/28 00:26:06;;;;;;;3.27;0.77;;;1.40;99.90;;;;;;4980110;28;20049;-73
2023/03/28 00:28:34;;;;;;;5.20;0.52;;;1.40;99.90;;;;;;4958851;28;20045;-74
2023/03/28 00:31:07;;;;;;;3.77;0.50;;;1.40;99.90;;;;;;4978411;28;20053;-74
2023/03/28 00:33:33;;;;;;;6.53;0.67;;;1.40;99.90;;;;;;4970621;28;20038;-74
2023/03/28 00:36:00;;;;;;;3.00;0.30;;;1.40;99.90;;;;;;4970321;28;21360;-74
2023/03/28 00:38:26;;;;;;;5.40;0.93;;;1.40;99.90;;;;;;4972766;28;20041;-74
2023/03/28 00:40:56;;;;;;;3.17;0.40;;;1.40;99.90;;;;;;4963554;28;20549;-74
2023/03/28 00:43:38;;;;;;;3.47;0.40;;;1.40;99.90;;;;;;4994202;28;20049;-74
2023/03/28 00:46:11;;;;;;;2.50;0.37;;;1.40;99.90;;;;;;4993213;28;20049;-74
2023/03/28 00:48:42;;;;;;;3.53;0.37;;;1.30;99.90;;;;;;4990480;28;20516;-74
2023/03/28 00:51:08;;;;;;;3.30;0.60;;;1.30;99.90;;;;;;4963034;28;20053;-74
2023/03/28 00:53:36;;;;;;;5.03;0.50;;;1.30;99.90;;;;;;4972421;28;20034;-74
2023/03/28 00:56:07;;;;;;;3.73;0.40;;;1.30;99.90;;;;;;4956570;28;21025;-74
2023/03/28 00:58:41;;;;;;;4.67;0.60;;;1.30;99.90;;;;;;4973411;28;20041;-74
2023/03/28 01:01:10;;;;;;;3.03;0.40;;;1.20;99.90;;;;;;4966825;28;20421;-74
2023/03/28 01:03:45;;;;;;;4.03;0.40;;;1.20;99.90;;;;;;4981399;28;20064;-74
2023/03/28 01:06:15;;;;;;;4.63;0.40;;;1.20;99.90;;;;;;4979852;28;20133;-74
2023/03/28 01:08:43;;;;;;;3.30;0.40;;;1.20;99.90;;;;;;4993107;28;20038;-74
2023/03/28 01:11:11;;;;;;;8.77;0.93;;;1.20;99.90;;;;;;4949582;28;20506;-74
2023/03/28 01:13:45;;;;;;;3.20;0.50;;;1.20;99.90;;;;;;4971203;28;20034;-73
2023/03/28 01:16:14;;;;;;;4.10;0.93;;;1.20;99.90;;;;;;4951185;28;20045;-74
2023/03/28 01:18:45;;;;;;;2.50;0.60;;;1.10;99.90;;;;;;4969517;28;20042;-74
2023/03/28 01:21:12;;;;;;;5.87;0.70;;;1.10;99.90;;;;;;4963215;28;20046;-74
2023/03/28 01:24:00;;;;;;;5.63;0.50;;;1.10;99.90;;;;;;4978228;28;20057;-73
2023/03/28 01:26:51;;;;;;;4.33;0.60;;;1.00;99.90;;;;;;4979729;28;20042;-73
2023/03/28 01:29:25;;;;;;;6.10;0.60;;;1.00;99.90;;;;;;4968771;28;20037;-74
2023/03/28 01:32:27;;;;;;;5.23;1.03;;;0.90;99.90;;;;;;4981614;28;20045;-74
2023/03/28 01:35:28;;;;;;;4.83;0.93;;;0.90;99.90;;;;;;4952664;28;20049;-74
2023/03/28 01:38:18;;;;;;;7.57;1.03;;;0.80;99.90;;;;;;4970824;28;20056;-74
2023/03/28 01:40:50;;;;;;;3.57;0.40;;;0.80;99.90;;;;;;4966601;28;20064;-74
2023/03/28 01:43:29;;;;;;;2.88;0.40;;;0.80;99.90;;;;;;4960340;28;20025;-74
2023/03/28 01:46:17;;;;;;;7.07;0.80;;;0.80;99.90;;;;;;4995315;28;20057;-74
2023/03/28 01:49:09;;;;;;;4.43;0.60;;;0.70;99.90;;;;;;4972672;28;20045;-74
2023/03/28 01:51:54;;;;;;;3.57;0.50;;;0.70;99.90;;;;;;4964089;28;20046;-74
2023/03/28 01:54:28;;;;;;;8.73;0.67;;;0.60;99.90;;;;;;4969403;28;20034;-74
2023/03/28 01:57:23;;;;;;;2.00;0.47;;;0.60;99.90;;;;;;4970585;28;20038;-74
2023/03/28 02:00:14;;;;;;;6.47;0.90;;;0.60;99.90;;;;;;4949985;28;20500;-74
2023/03/28 02:03:12;;;;;;;4.43;0.87;;;0.60;99.90;;;;;;4977437;28;20042;-74
2023/03/28 02:05:48;;;;;;;3.83;0.90;;;0.60;99.90;;;;;;4978599;28;20053;-74
2023/03/28 02:08:17;;;;;;;5.83;0.80;;;0.50;99.90;;;;;;4972448;28;20512;-74
2023/03/28 02:10:50;;;;;;;5.27;0.80;;;0.50;99.90;;;;;;4979549;28;20405;-74
2023/03/28 02:13:43;;;;;;;5.27;0.73;;;0.50;99.90;;;;;;4970831;28;20694;-74
2023/03/28 02:16:35;;;;;;;2.57;0.70;;;0.50;99.90;;;;;;4973528;28;20057;-76
2023/03/28 02:19:37;;;;;;;4.13;0.60;;;0.40;99.90;;;;;;4948245;28;20034;-74
2023/03/28 02:22:34;;;;;;;7.80;0.70;;;0.40;99.90;;;;;;4940582;28;20034;-74
2023/03/28 02:25:09;;;;;;;5.32;0.63;;;0.40;99.90;;;;;;4979422;28;20034;-73
2023/03/28 02:28:00;;;;;;;4.37;0.80;;;0.40;99.90;;;;;;4978512;28;20062;-74
2023/03/28 02:30:47;;;;;;;3.37;0.80;;;0.40;99.90;;;;;;4949517;28;20515;-74
2023/03/28 02:33:50;;;;;;;11.17;1.33;;;0.30;99.90;;;;;;4969731;28;20041;-74
2023/03/28 02:36:19;;;;;;;4.80;0.90;;;0.30;99.90;;;;;;4920737;28;20038;-74
2023/03/28 02:39:14;;;;;;;2.87;0.70;;;0.30;99.90;;;;;;4966421;28;20046;-74
2023/03/28 02:41:57;;;;;;;2.80;1.00;;;0.30;99.90;;;;;;4982425;28;20797;-74
2023/03/28 02:44:29;;;;;;;;;;;0.30;99.90;;;;;;4977294;28;20045;-74
2023/03/28 02:46:58;;;;;;;1.47;0.60;;;0.20;99.90;;;;;;4978222;28;19921;-74
2023/03/28 02:49:30;;;;;;;3.47;1.10;;;0.20;99.90;;;;;;4964747;28;20057;-74
2023/03/28 02:52:19;;;;;;;3.33;0.77;;;0.20;99.90;;;;;;4966813;28;20069;-73
2023/03/28 02:54:51;;;;;;;2.97;0.70;;;0.20;99.90;;;;;;4984285;28;20040;-74
2023/03/28 02:57:45;;;;;;;4.57;0.70;;;0.20;99.90;;;;;;4986299;28;20034;-74
2023/03/28 03:00:16;;;;;;;2.53;0.70;;;0.20;99.90;;;;;;4981532;28;20418;-74
2023/03/28 03:02:43;;;;;;;2.83;0.50;;;0.20;99.90;;;;;;4975689;28;20042;-73
2023/03/28 03:05:10;;;;;;;4.10;1.23;;;0.20;99.90;;;;;;4976952;28;20045;-74
2023/03/28 03:07:37;;;;;;;2.77;0.80;;;0.20;99.90;;;;;;4972670;28;20654;-74
2023/03/28 03:10:05;;;;;;;1.27;0.50;;;0.20;99.90;;;;;;4965220;28;20483;-73
2023/03/28 03:12:33;;;;;;;2.37;1.17;;;0.20;99.90;;;;;;4968143;28;20409;-73
2023/03/28 03:15:00;;;;;;;1.80;0.53;;;0.20;99.90;;;;;;4969354;28;20038;-73
2023/03/28 03:17:45;;;;;;;1.70;0.70;;;0.20;99.90;;;;;;4972046;28;20477;-73
2023/03/28 03:20:12;;;;;;;4.10;0.70;;;0.20;99.90;;;;;;4965957;28;20957;-73
2023/03/28 03:22:39;;;;;;;5.17;0.70;;;0.20;99.90;;;;;;4971829;28;20038;-74
2023/03/28 03:25:07;;;;;;;4.70;1.23;;;0.20;99.90;;;;;;4961880;28;20034;-74
2023/03/28 03:27:42;;;;;;;6.30;1.03;;;0.20;99.90;;;;;;4961200;28;20041;-73
2023/03/28 03:30:11;;;;;;;4.87;1.20;;;0.20;99.90;;;;;;4965553;28;20053;-74
2023/03/28 03:32:59;;;;;;;4.23;0.80;;;0.20;99.90;;;;;;4946042;28;20049;-75
2023/03/28 03:35:28;;;;;;;4.47;1.00;;;0.30;99.90;;;;;;4989285;28;20033;-74
2023/03/28 03:37:56;;;;;;;3.10;0.80;;;0.30;99.90;;;;;;4973617;28;20390;-74
2023/03/28 03:40:22;;;;;;;3.00;1.00;;;0.30;99.90;;;;;;4967872;28;20049;-75
2023/03/28 03:42:49;;;;;;;2.43;1.00;;;0.20;99.90;;;;;;4976777;28;20050;-75
2023/03/28 03:45:16;;;;;;;6.83;1.03;;;0.30;99.90;;;;;;4981351;28;21100;-74
2023/03/28 03:47:42;;;;;;;5.77;1.27;;;0.30;99.90;;;;;;4993173;28;20515;-75
2023/03/28 03:50:10;;;;;;;4.77;1.40;;;0.30;99.90;;;;;;4968209;28;20498;-75
2023/03/28 03:52:38;;;;;;;5.07;0.80;;;0.20;99.90;;;;;;4949874;28;20034;-75
2023/03/28 03:55:05;;;;;;;3.60;0.80;;;0.20;99.90;;;;;;4988321;28;20491;-75
2023/03/28 03:57:35;;;;;;;3.90;1.30;;;0.20;99.90;;;;;;4954760;28;20382;-74
2023/03/28 04:00:10;;;;;;;6.40;1.27;;;0.20;99.90;;;;;;4950111;28;20037;-75
2023/03/28 04:02:46;;;;;;;3.97;1.00;;;0.20;99.90;;;;;;4980303;28;20053;-74
2023/03/28 04:05:19;;;;;;;6.97;1.47;;;0.20;99.90;;;;;;4979953;28;20129;-74
2023/03/28 04:08:00;;;;;;;4.70;1.07;;;0.20;99.90;;;;;;4959413;28;20038;-74
2023/03/28 04:10:40;;;;;;;3.60;1.07;;;0.20;99.90;;;;;;4967338;28;20034;-74
2023/03/28 04:13:07;;;;;;;7.17;2.03;;;0.20;99.90;;;;;;4967947;28;20038;-75
2023/03/28 04:15:35;;;;;;;5.73;1.47;;;0.20;99.90;;;;;;4970091;28;20080;-75
2023/03/28 04:18:20;;;;;;;4.57;1.13;;;0.20;99.90;;;;;;4974433;28;20053;-75
2023/03/28 04:20:54;;;;;;;3.47;1.30;;;0.10;99.90;;;;;;4969270;28;20038;-75
2023/03/28 04:23:55;;;;;;;3.80;0.70;;;0.10;99.90;;;;;;4978986;28;20049;-75
2023/03/28 04:26:49;;;;;;;4.65;1.23;;;0.10;99.90;;;;;;4984109;28;20441;-75
2023/03/28 04:29:17;;;;;;;3.07;1.40;;;0.10;99.90;;;;;;4968249;28;20504;-75
2023/03/28 04:31:59;;;;;;;3.87;1.27;;;0.00;99.90;;;;;;4970747;28;20520;-75
2023/03/28 04:34:59;;;;;;;4.90;1.70;;;0.00;99.90;;;;;;4976829;28;20705;-74
2023/03/28 04:37:26;;;;;;;4.17;1.43;;;0.00;99.90;;;;;;4972979;28;20042;-74
2023/03/28 04:39:55;;;;;;;7.77;1.33;;;0.00;99.90;;;;;;4956055;28;20042;-75
2023/03/28 04:42:42;;;;;;;3.90;0.90;;;0.00;99.90;;;;;;4978395;28;20038;-75
2023/03/28 04:45:18;;;;;;;4.93;1.43;;;0.00;99.90;;;;;;4963297;28;20489;-75
2023/03/28 04:47:47;;;;;;;5.60;1.90;;;0.00;99.90;;;;;;4973567;28;20049;-75
2023/03/28 04:50:16;;;;;;;3.53;1.33;;;-0.10;99.90;;;;;;4950018;28;20504;-75
2023/03/28 04:52:42;;;;;;;7.90;1.17;;;-0.10;99.90;;;;;;4952076;28;20048;-75
2023/03/28 04:55:09;;;;;;;6.00;1.90;;;-0.10;99.90;;;;;;4969927;28;20042;-75
2023/03/28 04:57:37;;;;;;;9.90;2.30;;;-0.10;99.90;;;;;;4955130;28;20045;-75
2023/03/28 05:00:09;;;;;;;4.97;1.23;;;-0.10;99.90;;;;;;4951548;28;20374;-75
2023/03/28 05:03:00;;;;;;;5.40;1.40;;;-0.10;99.90;;;;;;4992571;28;20489;-75
2023/03/28 05:05:31;;;;;;;4.23;1.80;;;-0.20;99.90;;;;;;4978825;28;20034;-75
2023/03/28 05:07:58;;;;;;;3.73;1.70;;;-0.20;99.90;;;;;;4971894;28;20038;-74
2023/03/28 05:10:24;;;;;;;5.50;1.73;;;-0.20;99.90;;;;;;4967132;28;20528;-75
2023/03/28 05:12:54;;;;;;;4.30;1.20;;;-0.20;99.90;;;;;;4983915;28;20033;-75
2023/03/28 05:15:22;;;;;;;2.97;1.40;;;-0.20;99.90;;;;;;4971111;28;20038;-76
2023/03/28 05:17:58;;;;;;;5.03;1.97;;;-0.20;99.90;;;;;;4969101;28;20034;-75
2023/03/28 05:20:35;;;;;;;3.83;1.30;;;-0.20;99.90;;;;;;4986641;28;20061;-75
2023/03/28 05:23:02;;;;;;;4.53;1.23;;;-0.20;99.90;;;;;;4960127;28;20473;-74
2023/03/28 05:25:29;;;;;;;3.00;1.13;;;-0.30;99.90;;;;;;4961893;28;20048;-74
2023/03/28 05:27:56;;;;;;;4.10;1.43;;;-0.30;99.90;;;;;;4971620;28;20065;-74
2023/03/28 05:30:23;;;;;;;6.47;2.10;;;-0.30;99.90;;;;;;4948524;28;20413;-73
2023/03/28 05:32:52;;;;;;;8.23;1.50;;;-0.30;99.90;;;;;;4967267;28;20743;-74
2023/03/28 05:35:19;;;;;;;3.80;1.53;;;-0.30;99.90;;;;;;4969522;28;20496;-74
2023/03/28 05:37:46;;;;;;;5.27;2.33;;;-0.30;99.90;;;;;;4954971;28;20045;-75
2023/03/28 05:40:14;;;;;;;4.80;1.87;;;-0.20;99.90;;;;;;4974205;28;20038;-74
2023/03/28 05:42:42;;;;;;;4.73;1.80;;;-0.20;99.90;;;;;;4974584;28;21421;-74
2023/03/28 05:45:18;;;;;;;5.30;1.80;;;-0.20;99.90;;;;;;4974053;28;21127;-75
2023/03/28 05:47:55;;;;;;;3.87;1.83;;;-0.20;99.90;;;;;;4968135;28;20053;-75
2023/03/28 05:50:25;;;;;;;3.63;1.97;;;-0.10;99.90;;;;;;4982052;28;20476;-75
2023/03/28 05:52:56;;;;;;;9.77;2.53;;;-0.10;99.90;;;;;;4950845;28;20527;-75
2023/03/28 05:55:22;;;;;;;9.50;2.60;;;0.00;99.90;;;;;;4972718;28;20037;-74
2023/03/28 05:57:49;;;;;;;5.40;2.70;;;0.10;99.90;;;;;;4956948;28;20048;-75
2023/03/28 06:00:18;;;;;;;4.57;2.33;;;0.10;99.90;;;;;;4975600;28;20045;-75
2023/03/28 06:02:45;;;;;;;7.13;2.60;;;0.30;99.90;;;;;;4991840;28;20046;-75
2023/03/28 06:05:13;;;;;;;5.13;1.90;;;0.40;99.90;;;;;;4988424;28;20042;-75
2023/03/28 06:07:40;;;;;;;3.53;1.80;;;0.50;99.90;;;;;;4987343;28;20045;-75
2023/03/28 06:10:10;;;;;;;5.87;1.93;;;0.60;99.90;;;;;;4967583;28;20065;-75
2023/03/28 06:12:37;;;;;;;6.63;1.90;;;0.80;99.90;;;;;;4970087;28;20033;-74
2023/03/28 06:15:05;;;;;;;3.93;2.07;;;0.90;99.90;;;;;;4988172;28;20413;-74
2023/03/28 06:17:35;;;;;;;3.58;1.88;;;1.10;99.90;;;;;;4973530;28;20049;-74
2023/03/28 06:20:05;;;;;;;4.57;1.83;;;1.30;99.90;;;;;;4990896;28;21205;-75
2023/03/28 06:22:32;;;;;;;5.73;2.23;;;1.50;99.90;;;;;;4993410;28;20057;-74
2023/03/28 06:25:05;;;;;;;6.23;3.30;;;1.60;99.90;;;;;;4961924;28;20029;-74
2023/03/28 06:27:33;;;;;;;4.47;2.53;;;1.80;99.90;;;;;;4990137;28;20030;-75
2023/03/28 06:30:03;;;;;;;7.77;2.10;;;2.00;99.90;;;;;;4951231;28;20034;-74
2023/03/28 06:32:31;;;;;;;8.90;2.93;;;2.20;99.90;;;;;;4958696;28;20056;-74
2023/03/28 06:34:58;;;;;;;4.57;1.80;;;2.30;99.90;;;;;;4955471;28;20046;-75
2023/03/28 06:37:24;;;;;;;10.37;2.53;;;2.40;99.90;;;;;;4975297;28;20030;-75
2023/03/28 06:40:02;;;;;;;5.10;2.03;;;2.60;99.90;;;;;;4991222;28;20034;-75
2023/03/28 06:42:30;;;;;;;5.20;1.70;;;2.70;99.90;;;;;;4977413;28;20046;-75
2023/03/28 06:45:14;;;;;;;7.50;2.40;;;2.80;99.90;;;;;;4986141;28;20579;-75
2023/03/28 06:48:03;;;;;;;6.50;2.17;;;2.90;99.90;;;;;;4953118;28;21320;-76
2023/03/28 06:50:51;;;;;;;4.47;1.37;;;3.00;99.90;;;;;;4965765;28;20061;-76
2023/03/28 06:53:20;;;;;;;6.47;3.45;;;3.10;99.90;;;;;;4985248;28;20042;-75
2023/03/28 06:55:52;;;;;;;6.00;2.20;;;3.20;99.90;;;;;;4953198;28;20034;-75
2023/03/28 06:58:21;;;;;;;6.43;1.77;;;3.30;99.90;;;;;;4991724;28;20060;-75
2023/03/28 07:00:53;;;;;;;5.13;1.40;;;3.40;99.90;;;;;;4973412;28;20044;-75
2023/03/28 07:03:43;;;;;;;5.13;1.93;;;3.60;99.90;;;;;;4966751;28;20509;-75
2023/03/28 07:06:12;;;;;;;4.33;1.53;;;3.60;99.90;;;;;;4972237;28;20046;-75
2023/03/28 07:08:38;;;;;;;11.23;2.50;;;3.70;99.90;;;;;;4971248;28;20057;-75
2023/03/28 07:11:05;;;;;;;6.07;2.20;;;3.80;99.90;;;;;;4950342;28;20077;-75
2023/03/28 07:13:32;;;;;;;11.60;2.10;;;4.00;99.90;;;;;;4985222;28;20029;-75
2023/03/28 07:16:06;;;;;;;6.97;2.47;;;4.20;99.90;;;;;;4952912;28;20041;-75
2023/03/28 07:18:34;;;;;;;10.37;2.63;;;4.40;99.90;;;;;;4990787;28;20038;-75
2023/03/28 07:21:06;;;;;;;6.27;1.87;;;4.60;99.90;;;;;;4958218;28;20386;-75
2023/03/28 07:23:32;;;;;;;8.43;2.20;;;4.80;99.90;;;;;;4957866;28;20398;-75
2023/03/28 07:25:59;;;;;;;7.40;2.00;;;5.00;99.90;;;;;;4983614;28;20042;-75
2023/03/28 07:28:26;;;;;;;9.53;2.47;;;5.30;99.90;;;;;;4968944;28;20772;-75
2023/03/28 07:30:55;;;;;;;5.97;2.03;;;5.40;99.90;;;;;;4949376;28;20068;-75
2023/03/28 07:33:21;;;;;;;7.75;1.88;;;5.50;99.90;;;;;;4967251;28;20042;-75
2023/03/28 07:35:48;;;;;;;5.75;1.67;;;5.60;99.90;;;;;;4965625;28;20034;-75
2023/03/28 07:38:15;;;;;;;4.93;1.50;;;5.60;99.90;;;;;;4961048;28;20061;-75
2023/03/28 07:40:49;;;;;;;7.82;1.75;;;5.60;99.90;;;;;;4991041;28;20042;-75
2023/03/28 07:43:16;;;;;;;6.07;1.67;;;5.50;99.90;;;;;;4976004;28;20121;-75
2023/03/28 07:45:45;;;;;;;4.45;1.00;;;5.50;99.90;;;;;;4970302;28;20038;-75
2023/03/28 07:48:11;;;;;;;6.72;1.45;;;5.40;99.90;;;;;;4971927;28;20057;-75
2023/03/28 07:50:37;;;;;;;4.38;1.20;;;5.40;99.90;;;;;;4967675;28;20034;-75
2023/03/28 07:53:07;;;;;;;4.30;1.15;;;5.40;99.90;;;;;;4986176;28;20440;-75
2023/03/28 07:55:37;;;;;;;3.63;1.40;;;5.40;99.90;;;;;;4970893;28;20049;-75
2023/03/28 07:58:06;;;;;;;5.68;1.38;;;5.40;99.90;;;;;;4978246;28;20046;-75
2023/03/28 08:00:36;;;;;;;3.90;1.00;;;5.40;99.90;;;;;;4993059;28;20049;-75
2023/03/28 08:03:38;;;;;;;7.28;1.88;;;5.50;99.90;;;;;;4973669;28;20045;-76
2023/03/28 08:06:07;;;;;;;8.15;1.70;;;5.70;99.90;;;;;;4969912;28;20049;-78
2023/03/28 08:08:37;;;;;;;5.50;1.40;;;5.80;99.90;;;;;;4968851;28;20409;-76
2023/03/28 08:11:14;;;;;;;8.40;1.92;;;6.00;99.90;;;;;;4966988;28;20041;-76
2023/03/28 08:13:41;;;;;;;7.53;2.28;;;6.20;99.90;;;;;;4984328;28;20526;-75
2023/03/28 08:16:16;;;;;;;9.70;2.05;;;6.40;99.90;;;;;;4972692;28;20050;-75
2023/03/28 08:18:43;;;;;;;10.02;2.70;;;6.50;99.90;;;;;;4961054;28;20057;-75
2023/03/28 08:21:09;;;;;;;5.55;1.77;;;6.60;99.90;;;;;;4959459;28;20038;-75
2023/03/28 08:23:36;;;;;;;5.40;1.52;;;6.70;99.90;;;;;;4975056;28;20049;-76
2023/03/28 08:26:18;;;;;;;5.20;1.58;;;6.90;99.90;;;;;;4973342;28;20304;-76
2023/03/28 08:28:53;;;;;;;6.63;1.55;;;7.10;99.90;;;;;;4974353;28;20046;-75
2023/03/28 08:31:22;;;;;;;6.38;1.33;;;7.20;99.90;;;;;;4970332;28;20045;-75
2023/03/28 08:33:53;;;;;;;8.63;1.95;;;7.30;99.90;;;;;;4957226;28;20049;-76
2023/03/28 08:36:25;;;;;;;7.47;2.00;;;7.30;99.90;;;;;;4962902;28;20038;-75
2023/03/28 08:38:53;;;;;;;6.50;1.95;;;7.40;99.90;;;;;;4981733;28;20109;-75
2023/03/28 08:41:52;;;;;;;7.38;2.00;;;7.30;99.90;;;;;;4992700;28;20044;-76
2023/03/28 08:44:57;;;;;;;4.80;1.30;;;7.50;99.90;;;;;;4955302;28;22649;-76
2023/03/28 08:47:35;;;;;;;9.40;1.77;;;7.80;99.90;;;;;;4940213;28;20086;-76
2023/03/28 08:50:12;;;;;;;6.57;1.90;;;8.00;99.90;;;;;;4948132;28;20053;-75
2023/03/28 08:52:39;;;;;;;11.73;2.00;;;8.20;99.90;;;;;;4948312;28;20061;-76
2023/03/28 08:55:23;;;;;;;7.78;1.77;;;8.40;99.90;;;;;;4991107;28;20068;-75
2023/03/28 08:57:52;;;;;;;6.25;1.80;;;8.40;99.90;;;;;;4981460;28;20050;-75
2023/03/28 09:00:30;;;;;;;5.95;2.25;;;8.40;99.90;;;;;;4981028;28;20041;-75
2023/03/28 09:02:57;;;;;;;9.48;2.10;;;8.40;99.90;;;;;;4957099;28;20057;-75
2023/03/28 09:05:46;;;;;;;6.35;1.13;;;8.40;99.90;;;;;;4970159;28;20042;-76
2023/03/28 09:08:29;;;;;;;5.47;1.05;;;8.50;99.90;;;;;;4954478;28;20046;-75
2023/03/28 09:11:03;;;;;;;5.75;1.10;;;8.50;99.90;;;;;;4954526;28;20363;-75
2023/03/28 09:13:57;;;;;;;6.22;1.15;;;8.60;99.90;;;;;;4969933;28;20049;-75
2023/03/28 09:16:48;;;;;;;4.82;0.90;;;8.70;99.90;;;;;;4978441;28;20400;-74
2023/03/28 09:19:32;;;;;;;4.78;0.90;;;8.70;99.90;;;;;;4994516;28;20389;-75
2023/03/28 09:22:25;;;;;;;5.70;1.05;;;8.80;99.90;;;;;;4972515;28;20038;-74
2023/03/28 09:25:15;;;;;;;5.80;1.10;;;9.00;99.90;;;;;;4989813;28;20120;-75
2023/03/28 09:27:56;;;;;;;5.38;0.63;;;9.10;99.90;;;;;;4973472;28;20046;-75
2023/03/28 09:30:38;;;;;;;8.95;1.25;;;9.20;99.90;;;;;;4970978;28;20432;-75
2023/03/28 09:33:14;;;;;;;3.90;0.80;;;9.20;99.90;;;;;;4986211;28;20056;-75
2023/03/28 09:35:42;;;;;;;7.18;0.80;;;9.30;99.90;;;;;;4998276;28;20038;-76
2023/03/28 09:38:20;;;;;;;10.07;1.45;;;9.40;99.90;;;;;;5000037;28;20464;-75
2023/03/28 09:40:52;;;;;;;5.15;0.85;;;9.40;99.90;;;;;;4971405;28;20504;-74
2023/03/28 09:43:43;;;;;;;8.75;1.88;;;9.40;99.90;;;;;;4973950;28;20042;-73
2023/03/28 09:46:42;;;;;;;5.38;1.17;;;9.50;99.90;;;;;;4972660;28;20046;-74
2023/03/28 09:49:35;;;;;;;6.28;1.25;;;9.60;99.90;;;;;;4984809;28;20076;-74
2023/03/28 09:52:18;;;;;;;8.70;1.65;;;9.60;99.90;;;;;;4982654;28;20389;-74
2023/03/28 09:54:47;;;;;;;4.20;1.02;;;9.80;99.90;;;;;;4978297;28;20050;-74
2023/03/28 09:57:14;;;;;;;5.00;0.80;;;9.90;99.90;;;;;;4981710;28;20038;-75
2023/03/28 09:59:50;;;;;;;10.75;1.60;;;10.10;99.90;;;;;;4956380;28;20042;-74
2023/03/28 10:02:31;;;;;;;5.10;1.08;;;10.30;99.90;;;;;;4985568;28;20052;-74
2023/03/28 10:05:00;;;;;;;6.45;1.15;;;10.50;99.90;;;;;;4971716;28;20034;-73
2023/03/28 10:07:41;;;;;;;6.25;1.33;;;10.70;99.90;;;;;;4986966;28;20092;-74
2023/03/28 10:10:27;;;;;;;6.13;1.52;;;10.90;99.90;;;;;;4969580;28;20571;-75
2023/03/28 10:13:03;;;;;;;;;;;11.00;99.90;;;;;;4979480;28;20863;-75
2023/03/28 10:15:44;;;;;;;2.70;0.70;;;10.90;99.90;;;;;;4980582;28;19991;-75
2023/03/28 10:18:25;;;;;;;4.50;1.08;;;10.80;99.90;;;;;;4978714;28;20034;-75
2023/03/28 10:21:22;;;;;;;5.13;1.00;;;10.60;99.90;;;;;;4954154;28;20050;-74
2023/03/28 10:24:04;;;;;;;5.57;0.90;;;10.50;99.90;;;;;;4942292;28;20072;-74
2023/03/28 10:26:31;;;;;;;4.53;1.02;;;10.50;99.90;;;;;;4968729;28;21449;-75
2023/03/28 10:29:03;;;;;;;7.45;1.45;;;10.60;99.90;;;;;;4968904;28;20412;-75
2023/03/28 10:31:36;;;;;;;7.75;1.17;;;10.60;99.90;;;;;;4950646;28;20046;-75
2023/03/28 10:34:28;;;;;;;2.83;0.90;;;10.70;99.90;;;;;;4963430;28;20037;-74
2023/03/28 10:37:27;;;;;;;4.75;1.17;;;10.70;99.90;;;;;;4978067;28;20062;-74
2023/03/28 10:40:19;;;;;;;4.95;0.95;;;11.00;99.90;;;;;;4953473;28;21340;-75
2023/03/28 10:43:13;;;;;;;4.45;1.23;;;11.20;99.90;;;;;;4963517;28;20053;-74
2023/03/28 10:46:01;;;;;;;5.47;0.98;;;11.30;99.90;;;;;;4971412;28;20037;-73
2023/03/28 10:48:40;;;;;;;6.22;1.27;;;11.40;99.80;;;;;;4985204;28;20457;-75
2023/03/28 10:51:20;;;;;;;7.38;1.17;;;11.50;99.80;;;;;;4967716;28;20049;-75
2023/03/28 10:54:08;;;;;;;3.97;1.15;;;11.60;99.10;;;;;;4979490;28;20041;-74
2023/03/28 10:56:40;;;;;;;10.63;1.80;;;11.70;98.40;;;;;;4977907;28;20123;-74
2023/03/28 10:59:29;;;;;;;5.43;1.02;;;11.80;97.10;;;;;;4957276;28;20049;-74
2023/03/28 11:02:06;;;;;;;5.47;1.10;;;11.90;97.30;;;;;;4967657;28;20042;-76
2023/03/28 11:04:48;;;;;;;3.90;0.80;;;12.00;97.50;;;;;;4984772;28;20041;-74
2023/03/28 11:07:58;;;;;;;8.40;1.50;;;12.10;97.30;;;;;;4953138;28;20397;-73
2023/03/28 11:11:28;;;;;;;7.57;2.83;;;12.10;96.40;;;;;;4962435;28;20057;-74
2023/03/28 11:14:20;;;;;;;6.75;1.10;;;12.10;96.80;;;;;;4979151;28;21140;-75
2023/03/28 11:16:57;;;;;;;8.68;1.08;;;12.20;96.70;;;;;;4993478;28;20052;-74
2023/03/28 11:20:16;;;;;;;4.13;1.05;;;12.20;96.10;;;;;;4951330;28;20045;-75
2023/03/28 11:23:05;;;;;;;2.83;0.90;;;12.10;95.00;;;;;;4968385;28;20383;-73
2023/03/28 11:25:42;;;;;;;7.68;0.85;;;12.00;95.30;;;;;;4983245;28;20401;-74
2023/03/28 11:29:21;;;;;;;1.88;0.50;;;11.90;95.00;;;;;;4974980;28;20409;-74
2023/03/28 11:32:06;;;;;;;6.18;1.35;;;11.80;95.00;;;;;;4967165;28;20046;-73
2023/03/28 11:34:42;;;;;;;7.00;1.30;;;11.80;94.90;;;;;;4962623;28;20049;-73
2023/03/28 11:37:17;;;;;;;3.08;0.60;;;11.70;94.80;;;;;;4977182;28;20413;-75
2023/03/28 11:39:44;;;;;;;3.28;0.80;;;11.70;94.40;;;;;;4988147;28;20033;-75
2023/03/28 11:42:44;;;;;;;5.28;1.13;;;11.70;94.50;;;;;;4952232;28;20046;-75
2023/03/28 11:45:34;;;;;;;3.63;0.82;;;11.60;94.50;;;;;;4970932;28;21503;-74
2023/03/28 11:48:40;;;;;;;4.22;0.93;;;11.70;94.60;;;;;;4953172;28;21516;-74
2023/03/28 11:51:19;;;;;;;3.10;0.80;;;11.80;94.40;;;;;;4965045;28;20509;-73
2023/03/28 11:54:05;;;;;;;4.45;0.80;;;12.00;94.90;;;;;;4977577;28;20046;-74
2023/03/28 11:56:54;;;;;;;3.22;0.70;;;12.30;94.80;;;;;;4980818;28;20054;-74
2023/03/28 12:00:20;;;;;;;6.07;1.00;;;12.60;94.10;;;;;;4972428;28;20050;-73
2023/03/28 12:02:53;;;;;;;8.57;3.13;;;12.90;93.30;;;;;;4972203;28;20083;-73
2023/03/28 12:05:25;;;;;;;4.53;1.42;;;13.00;93.10;;;;;;4973312;28;20045;-73
2023/03/28 12:08:19;;;;;;;7.15;2.08;;;13.20;92.60;;;;;;4956587;28;20046;-74
2023/03/28 12:10:57;;;;;;;3.80;0.82;;;13.40;92.30;;;;;;4954716;28;20493;-74
2023/03/28 12:14:30;;;;;;;3.72;0.57;;;13.60;92.30;;;;;;4979711;28;20433;-73
2023/03/28 12:17:14;;;;;;;6.35;3.20;;;13.70;91.80;;;;;;4955384;28;20157;-75
2023/03/28 12:19:41;;;;;;;4.15;1.27;;;13.80;92.10;;;;;;4933751;28;20042;-74
2023/03/28 12:22:43;;;;;;;6.40;0.98;;;13.80;91.90;;;;;;4955523;28;20125;-75
2023/03/28 12:25:18;;;;;;;6.15;0.93;;;13.80;91.40;;;;;;4968437;28;20048;-75
2023/03/28 12:28:14;;;;;;;4.75;0.80;;;13.90;90.90;;;;;;4971419;28;20695;-75
2023/03/28 12:31:05;;;;;;;4.85;0.70;;;13.80;90.10;;;;;;4950968;28;20050;-74
2023/03/28 12:33:39;;;;;;;5.22;0.75;;;13.80;89.60;;;;;;4978695;28;20045;-75
2023/03/28 12:36:32;;;;;;;5.82;1.00;;;13.90;89.40;;;;;;4979163;28;20037;-74
2023/03/28 12:39:20;;;;;;;4.80;0.82;;;14.00;89.30;;;;;;4952151;28;21254;-75
2023/03/28 12:41:47;;;;;;;4.55;1.05;;;14.20;89.30;;;;;;4966876;28;20514;-75
2023/03/28 12:44:27;;;;;;;5.05;0.80;;;14.20;87.80;;;;;;4979818;28;20046;-75
2023/03/28 12:47:13;;;;;;;3.47;0.85;;;14.00;87.20;;;;;;4963506;28;21841;-75
2023/03/28 12:49:44;;;;;;;4.07;0.70;;;13.90;88.00;;;;;;4963331;28;20077;-75
2023/03/28 12:52:27;;;;;;;3.45;0.82;;;13.80;87.90;;;;;;4968526;28;20508;-75
2023/03/28 12:55:06;;;;;;;5.88;0.95;;;13.70;88.60;;;;;;4960435;28;20029;-74
2023/03/28 12:57:43;;;;;;;5.57;0.85;;;13.80;88.80;;;;;;4968663;28;20858;-75
2023/03/28 13:00:28;;;;;;;4.65;1.00;;;13.70;87.60;;;;;;4961985;28;20048;-75
2023/03/28 13:03:45;;;;;;;5.53;1.20;;;13.40;87.50;;;;;;4960480;28;20046;-75
2023/03/28 13:06:28;;;;;;;5.47;1.50;;;13.30;87.40;;;;;;4946914;28;20605;-74
2023/03/28 13:08:54;;;;;;;4.25;0.82;;;13.10;87.10;;;;;;4978330;28;20049;-75
2023/03/28 13:11:48;;;;;;;5.18;1.00;;;13.00;87.80;;;;;;4966583;28;20421;-74
2023/03/28 13:14:29;;;;;;;4.28;1.00;;;13.10;87.90;;;;;;4987685;28;20038;-74
2023/03/28 13:16:56;;;;;;;6.32;1.73;;;13.20;88.30;;;;;;4967612;28;21091;-75
2023/03/28 13:19:45;;;;;;;4.20;1.27;;;13.30;87.70;;;;;;4976588;28;20736;-75
2023/03/28 13:22:56;;;;;;;6.18;1.30;;;13.50;87.00;;;;;;4962831;28;20038;-75
2023/03/28 13:25:28;;;;;;;4.28;1.13;;;13.70;87.30;;;;;;4962120;28;20041;-75
2023/03/28 13:28:22;;;;;;;5.32;0.80;;;13.90;87.20;;;;;;4977220;28;20033;-75
2023/03/28 13:31:05;;;;;;;3.33;0.90;;;14.50;87.30;;;;;;4961169;28;20049;-74
2023/03/28 13:33:36;;;;;;;4.22;0.82;;;14.60;85.90;;;;;;4973306;28;20488;-73
2023/03/28 13:36:02;;;;;;;7.45;1.15;;;14.40;85.10;;;;;;4954367;28;20041;-73
2023/03/28 13:38:28;;;;;;;6.07;2.17;;;14.00;83.60;;;;;;4966568;28;20622;-74
2023/03/28 13:41:08;;;;;;;4.32;1.58;;;13.70;84.20;;;;;;4976049;28;20034;-73
2023/03/28 13:43:53;;;;;;;3.92;1.20;;;13.40;85.10;;;;;;4976478;28;20048;-74
2023/03/28 13:46:42;;;;;;;4.18;1.70;;;13.20;85.90;;;;;;4964095;28;20037;-74